PWSweather.com
Personal Weather Stations
Station Observations
265NC
Va2kh, Stcasimir, QC G0A 3L0

Va2khStcasimir, QC G0A 3L0

Lat: 46.65839, Lon: -72.13905

Elevation: 105

Station Type: National Geographic 265NC

http://www.qsl.net/va2kh

High Low Average
Temperature 27.3°F-2.6°F 14.9°F-9.5°F 22.4°F-5.3°F
Dew Point 24.4°F-4.2°F 11.8°F-11.2°F 18.0°F-7.8°F
Winds 3.8 mph NNE6.1 mph NNE Calm Calm 1.3 mph 2.1 mph
Wind Gusts 11.4 mph18.3 mph 1.6 mph2.6 mph 5.4 mph8.7 mph
Humidity 92% 74% 83%
Pressure 30.39 in1029.10 in 30.07 in1018.30 in -
Precipitation 0.00 in0.00 in - -
Hour Temp Dew Point Humidity Winds Wind Gusts Pressure Precip Precip Rate Daily Precip Total
12:15 AM 26.4°F-3.1°C 24.4°F-4.2°C 92% 1.9 mph N3.1 kmh N 8.3 mph13.4 kmh 30.07 in1018.3 mb 0.00 in0.0 mm 0.00 in/hr0.0 mm/hr 0.00 in0.0 mm
12:30 AM 26.4°F-3.1°C 24.4°F-4.2°C 92% 2.1 mph NNW3.4 kmh NNW 9.2 mph14.8 kmh 30.07 in1018.3 mb 0.00 in0.0 mm 0.00 in/hr0.0 mm/hr 0.00 in0.0 mm
12:45 AM 26.2°F-3.2°C 24.3°F-4.3°C 92% 0.6 mph NW1.0 kmh NW 7.6 mph12.2 kmh 30.07 in1018.3 mb 0.00 in0.0 mm 0.00 in/hr0.0 mm/hr 0.00 in0.0 mm
01:00 AM 26.1°F-3.3°C 23.8°F-4.6°C 91% 1.8 mph N2.9 kmh N 6.0 mph9.7 kmh 30.07 in1018.3 mb 0.00 in0.0 mm 0.00 in/hr0.0 mm/hr 0.00 in0.0 mm
01:15 AM 25.9°F-3.4°C 23.4°F-4.8°C 90% 2.1 mph N3.4 kmh N 8.3 mph13.4 kmh 30.07 in1018.3 mb 0.00 in0.0 mm 0.00 in/hr0.0 mm/hr 0.00 in0.0 mm
01:30 AM 25.3°F-3.7°C 22.8°F-5.1°C 90% 0.1 mph NW0.2 kmh NW 3.1 mph5.0 kmh 30.08 in1018.6 mb 0.00 in0.0 mm 0.00 in/hr0.0 mm/hr 0.00 in0.0 mm
01:45 AM 25.0°F-3.9°C 22.8°F-5.1°C 91% 0.3 mph NNW0.5 kmh NNW 3.8 mph6.1 kmh 30.08 in1018.6 mb 0.00 in0.0 mm 0.00 in/hr0.0 mm/hr 0.00 in0.0 mm
02:00 AM 25.2°F-3.8°C 22.9°F-5.1°C 91% 1.7 mph N2.7 kmh N 7.6 mph12.2 kmh 30.09 in1019.0 mb 0.00 in0.0 mm 0.00 in/hr0.0 mm/hr 0.00 in0.0 mm
02:15 AM 25.0°F-3.9°C 22.8°F-5.1°C 91% 0.8 mph NNW1.3 kmh NNW 5.4 mph8.7 kmh 30.08 in1018.6 mb 0.00 in0.0 mm 0.00 in/hr0.0 mm/hr 0.00 in0.0 mm
02:30 AM 24.6°F-4.1°C 22.1°F-5.5°C 90% 0.9 mph ENE1.4 kmh ENE 4.5 mph7.2 kmh 30.09 in1019.0 mb 0.00 in0.0 mm 0.00 in/hr0.0 mm/hr 0.00 in0.0 mm
02:45 AM 23.9°F-4.5°C 21.4°F-5.9°C 90% 0.3 mph WNW0.5 kmh WNW 3.1 mph5.0 kmh 30.08 in1018.6 mb 0.00 in0.0 mm 0.00 in/hr0.0 mm/hr 0.00 in0.0 mm
03:00 AM 23.5°F-4.7°C 21.3°F-5.9°C 91% 0.9 mph NW1.4 kmh NW 5.4 mph8.7 kmh 30.09 in1019.0 mb 0.00 in0.0 mm 0.00 in/hr0.0 mm/hr 0.00 in0.0 mm
03:15 AM 23.7°F-4.6°C 21.2°F-6.0°C 90% 3.7 mph NNE6.0 kmh NNE 9.2 mph14.8 kmh 30.09 in1019.0 mb 0.00 in0.0 mm 0.00 in/hr0.0 mm/hr 0.00 in0.0 mm
03:30 AM 23.5°F-4.7°C 20.8°F-6.2°C 89% 1.9 mph N3.1 kmh N 6.0 mph9.7 kmh 30.09 in1019.0 mb 0.00 in0.0 mm 0.00 in/hr0.0 mm/hr 0.00 in0.0 mm
03:45 AM 23.4°F-4.8°C 20.6°F-6.3°C 89% 1.3 mph N2.1 kmh N 5.4 mph8.7 kmh 30.10 in1019.3 mb 0.00 in0.0 mm 0.00 in/hr0.0 mm/hr 0.00 in0.0 mm
04:00 AM 23.2°F-4.9°C 20.5°F-6.4°C 89% 2.1 mph NNE3.4 kmh NNE 6.9 mph11.1 kmh 30.10 in1019.3 mb 0.00 in0.0 mm 0.00 in/hr0.0 mm/hr 0.00 in0.0 mm
04:15 AM 23.0°F-5.0°C 20.3°F-6.5°C 89% 2.4 mph N3.9 kmh N 7.6 mph12.2 kmh 30.09 in1019.0 mb 0.00 in0.0 mm 0.00 in/hr0.0 mm/hr 0.00 in0.0 mm
04:30 AM 22.8°F-5.1°C 20.1°F-6.6°C 89% 0.7 mph N1.1 kmh N 5.4 mph8.7 kmh 30.09 in1019.0 mb 0.00 in0.0 mm 0.00 in/hr0.0 mm/hr 0.00 in0.0 mm
04:45 AM 22.5°F-5.3°C 19.5°F-6.9°C 88% 2.2 mph NW3.5 kmh NW 9.8 mph15.8 kmh 30.09 in1019.0 mb 0.00 in0.0 mm 0.00 in/hr0.0 mm/hr 0.00 in0.0 mm
05:00 AM 22.3°F-5.4°C 19.0°F-7.2°C 87% 3.4 mph NW5.5 kmh NW 11.4 mph18.3 kmh 30.10 in1019.3 mb 0.00 in0.0 mm 0.00 in/hr0.0 mm/hr 0.00 in0.0 mm
05:15 AM 21.6°F-5.8°C 18.1°F-7.7°C 86% 2.2 mph NNW3.5 kmh NNW 8.3 mph13.4 kmh 30.11 in1019.6 mb 0.00 in0.0 mm 0.00 in/hr0.0 mm/hr 0.00 in0.0 mm
05:30 AM 21.2°F-6.0°C 17.7°F-7.9°C 86% 2.5 mph N4.0 kmh N 7.6 mph12.2 kmh 30.11 in1019.6 mb 0.00 in0.0 mm 0.00 in/hr0.0 mm/hr 0.00 in0.0 mm
05:45 AM 20.7°F-6.3°C 17.2°F-8.2°C 86% 0.8 mph NNW1.3 kmh NNW 6.9 mph11.1 kmh 30.11 in1019.6 mb 0.00 in0.0 mm 0.00 in/hr0.0 mm/hr 0.00 in0.0 mm
06:00 AM 20.1°F-6.6°C 16.6°F-8.6°C 86% 2.0 mph NNW3.2 kmh NNW 7.6 mph12.2 kmh 30.12 in1020.0 mb 0.00 in0.0 mm 0.00 in/hr0.0 mm/hr 0.00 in0.0 mm
06:15 AM 19.6°F-6.9°C 16.4°F-8.7°C 87% 1.1 mph NNW1.8 kmh NNW 5.4 mph8.7 kmh 30.13 in1020.3 mb 0.00 in0.0 mm 0.00 in/hr0.0 mm/hr 0.00 in0.0 mm
06:30 AM 19.6°F-6.9°C 16.4°F-8.7°C 87% 1.2 mph N1.9 kmh N 6.0 mph9.7 kmh 30.13 in1020.3 mb 0.00 in0.0 mm 0.00 in/hr0.0 mm/hr 0.00 in0.0 mm
06:45 AM 19.6°F-6.9°C 16.4°F-8.7°C 87% 1.6 mph N2.6 kmh N 6.0 mph9.7 kmh 30.13 in1020.3 mb 0.00 in0.0 mm 0.00 in/hr0.0 mm/hr 0.00 in0.0 mm
07:00 AM 19.6°F-6.9°C 16.4°F-8.7°C 87% 2.2 mph N3.5 kmh N 8.3 mph13.4 kmh 30.13 in1020.3 mb 0.00 in0.0 mm 0.00 in/hr0.0 mm/hr 0.00 in0.0 mm
07:15 AM 19.2°F-7.1°C 15.8°F-9.0°C 86% 1.5 mph N2.4 kmh N 7.6 mph12.2 kmh 30.13 in1020.3 mb 0.00 in0.0 mm 0.00 in/hr0.0 mm/hr 0.00 in0.0 mm
07:30 AM 18.9°F-7.3°C 15.4°F-9.2°C 86% 1.9 mph NNW3.1 kmh NNW 7.6 mph12.2 kmh 30.14 in1020.7 mb 0.00 in0.0 mm 0.00 in/hr0.0 mm/hr 0.00 in0.0 mm
07:45 AM 18.9°F-7.3°C 15.4°F-9.2°C 86% 1.9 mph N3.1 kmh N 6.0 mph9.7 kmh 30.15 in1021.0 mb 0.00 in0.0 mm 0.00 in/hr0.0 mm/hr 0.00 in0.0 mm
08:00 AM 18.7°F-7.4°C 15.2°F-9.3°C 86% 1.1 mph N1.8 kmh N 6.9 mph11.1 kmh 30.15 in1021.0 mb 0.00 in0.0 mm 0.00 in/hr0.0 mm/hr 0.00 in0.0 mm
08:15 AM 18.9°F-7.3°C 15.4°F-9.2°C 86% 2.2 mph NW3.5 kmh NW 6.0 mph9.7 kmh 30.16 in1021.3 mb 0.00 in0.0 mm 0.00 in/hr0.0 mm/hr 0.00 in0.0 mm
08:30 AM 19.2°F-7.1°C 15.5°F-9.2°C 85% 3.0 mph N4.8 kmh N 9.2 mph14.8 kmh 30.17 in1021.7 mb 0.00 in0.0 mm 0.00 in/hr0.0 mm/hr 0.00 in0.0 mm
08:45 AM 19.8°F-6.8°C 16.0°F-8.9°C 85% 1.7 mph N2.7 kmh N 7.6 mph12.2 kmh 30.18 in1022.0 mb 0.00 in0.0 mm 0.00 in/hr0.0 mm/hr 0.00 in0.0 mm
09:00 AM 20.3°F-6.5°C 16.3°F-8.7°C 84% 1.5 mph N2.4 kmh N 6.0 mph9.7 kmh 30.19 in1022.4 mb 0.00 in0.0 mm 0.00 in/hr0.0 mm/hr 0.00 in0.0 mm
09:15 AM 21.0°F-6.1°C 16.7°F-8.5°C 83% 2.2 mph NNW3.5 kmh NNW 6.0 mph9.7 kmh 30.20 in1022.7 mb 0.00 in0.0 mm 0.00 in/hr0.0 mm/hr 0.00 in0.0 mm
09:30 AM 21.4°F-5.9°C 16.8°F-8.4°C 82% 2.6 mph N4.2 kmh N 8.3 mph13.4 kmh 30.20 in1022.7 mb 0.00 in0.0 mm 0.00 in/hr0.0 mm/hr 0.00 in0.0 mm
09:45 AM 21.6°F-5.8°C 16.7°F-8.5°C 81% 3.1 mph N5.0 kmh N 8.3 mph13.4 kmh 30.21 in1023.0 mb 0.00 in0.0 mm 0.00 in/hr0.0 mm/hr 0.00 in0.0 mm
10:00 AM 22.1°F-5.5°C 17.2°F-8.2°C 81% 2.8 mph N4.5 kmh N 8.3 mph13.4 kmh 30.21 in1023.0 mb 0.00 in0.0 mm 0.00 in/hr0.0 mm/hr 0.00 in0.0 mm
10:15 AM 22.3°F-5.4°C 17.1°F-8.3°C 80% 3.8 mph NNE6.1 kmh NNE 9.2 mph14.8 kmh 30.21 in1023.0 mb 0.00 in0.0 mm 0.00 in/hr0.0 mm/hr 0.00 in0.0 mm
10:30 AM 23.0°F-5.0°C 17.8°F-7.9°C 80% 2.7 mph NNE4.3 kmh NNE 7.6 mph12.2 kmh 30.21 in1023.0 mb 0.00 in0.0 mm 0.00 in/hr0.0 mm/hr 0.00 in0.0 mm
10:31 AM 23.0°F-5.0°C 17.7°F-7.9°C 80% 3.2 mph N5.1 kmh N 7.6 mph12.2 kmh 30.22 in1023.4 mb 0.00 in0.0 mm 0.00 in/hr0.0 mm/hr 0.00 in0.0 mm
10:45 AM 23.4°F-4.8°C 17.8°F-7.9°C 79% 2.2 mph N3.5 kmh N 6.9 mph11.1 kmh 30.21 in1023.0 mb 0.00 in0.0 mm 0.00 in/hr0.0 mm/hr 0.00 in0.0 mm
10:51 AM 23.5°F-4.7°C 17.7°F-7.9°C 78% 2.3 mph NNW3.7 kmh NNW 9.2 mph14.8 kmh 30.21 in1023.0 mb 0.00 in0.0 mm 0.00 in/hr0.0 mm/hr 0.00 in0.0 mm
11:11 AM 24.3°F-4.3°C 18.4°F-7.6°C 78% 2.4 mph N3.9 kmh N 7.0 mph11.3 kmh 30.21 in1023.0 mb 0.00 in0.0 mm 0.00 in/hr0.0 mm/hr 0.00 in0.0 mm
11:15 AM 24.6°F-4.1°C 18.8°F-7.3°C 78% 1.8 mph N2.9 kmh N 7.0 mph11.3 kmh 30.20 in1022.7 mb 0.00 in0.0 mm 0.00 in/hr0.0 mm/hr 0.00 in0.0 mm
11:30 AM 25.0°F-3.9°C 18.8°F-7.3°C 77% 1.3 mph NNW2.1 kmh NNW 6.9 mph11.1 kmh 30.20 in1022.7 mb 0.00 in0.0 mm 0.00 in/hr0.0 mm/hr 0.00 in0.0 mm
11:31 AM 25.0°F-3.9°C 18.8°F-7.3°C 77% 2.1 mph N3.4 kmh N 7.0 mph11.3 kmh 30.21 in1023.0 mb 0.00 in0.0 mm 0.00 in/hr0.0 mm/hr 0.00 in0.0 mm
11:45 AM 25.2°F-3.8°C 19.0°F-7.2°C 77% 1.7 mph NNW2.7 kmh NNW 6.0 mph9.7 kmh 30.20 in1022.7 mb 0.00 in0.0 mm 0.00 in/hr0.0 mm/hr 0.00 in0.0 mm
11:51 AM 25.3°F-3.7°C 19.1°F-7.2°C 77% 1.6 mph NNW2.6 kmh NNW 5.3 mph8.5 kmh 30.21 in1023.0 mb 0.00 in0.0 mm 0.00 in/hr0.0 mm/hr 0.00 in0.0 mm
12:00 PM 25.7°F-3.5°C 19.5°F-6.9°C 77% 1.8 mph NNW2.9 kmh NNW 6.9 mph11.1 kmh 30.20 in1022.7 mb 0.00 in0.0 mm 0.00 in/hr0.0 mm/hr 0.00 in0.0 mm
12:15 PM 25.9°F-3.4°C 19.4°F-7.0°C 76% 2.2 mph N3.5 kmh N 8.3 mph13.4 kmh 30.20 in1022.7 mb 0.00 in0.0 mm 0.00 in/hr0.0 mm/hr 0.00 in0.0 mm
12:30 PM 26.1°F-3.3°C 19.3°F-7.1°C 75% 2.6 mph N4.2 kmh N 7.6 mph12.2 kmh 30.20 in1022.7 mb 0.00 in0.0 mm 0.00 in/hr0.0 mm/hr 0.00 in0.0 mm
12:31 PM 26.1°F-3.3°C 19.2°F-7.1°C 75% 2.9 mph N4.7 kmh N 7.6 mph12.2 kmh 30.20 in1022.7 mb 0.00 in0.0 mm 0.00 in/hr0.0 mm/hr 0.00 in0.0 mm
12:45 PM 26.6°F-3.0°C 19.8°F-6.8°C 75% 1.5 mph N2.4 kmh N 6.9 mph11.1 kmh 30.21 in1023.0 mb 0.00 in0.0 mm 0.00 in/hr0.0 mm/hr 0.00 in0.0 mm
12:51 PM 26.8°F-2.9°C 19.9°F-6.7°C 75% 1.6 mph N2.6 kmh N 5.3 mph8.5 kmh 30.21 in1023.0 mb 0.00 in0.0 mm 0.00 in/hr0.0 mm/hr 0.00 in0.0 mm
01:00 PM 27.0°F-2.8°C 20.1°F-6.6°C 75% 0.8 mph NNW1.3 kmh NNW 4.5 mph7.2 kmh 30.21 in1023.0 mb 0.00 in0.0 mm 0.00 in/hr0.0 mm/hr 0.00 in0.0 mm
01:11 PM 27.3°F-2.6°C 20.1°F-6.6°C 74% 0.5 mph NNW0.8 kmh NNW 3.8 mph6.1 kmh 30.21 in1023.0 mb 0.00 in0.0 mm 0.00 in/hr0.0 mm/hr 0.00 in0.0 mm
01:15 PM 27.1°F-2.7°C 20.0°F-6.7°C 74% 0.4 mph NNW0.6 kmh NNW 3.8 mph6.1 kmh 30.22 in1023.4 mb 0.00 in0.0 mm 0.00 in/hr0.0 mm/hr 0.00 in0.0 mm
01:30 PM 26.6°F-3.0°C 19.5°F-6.9°C 74% 0.4 mph NW0.6 kmh NW 3.8 mph6.1 kmh 30.22 in1023.4 mb 0.00 in0.0 mm 0.00 in/hr0.0 mm/hr 0.00 in0.0 mm
01:31 PM 26.6°F-3.0°C 19.4°F-7.0°C 74% 0.5 mph NW0.8 kmh NW 3.8 mph6.1 kmh 30.22 in1023.4 mb 0.00 in0.0 mm 0.00 in/hr0.0 mm/hr 0.00 in0.0 mm
01:45 PM 26.8°F-2.9°C 20.0°F-6.7°C 75% 1.1 mph WNW1.8 kmh WNW 4.5 mph7.2 kmh 30.22 in1023.4 mb 0.00 in0.0 mm 0.00 in/hr0.0 mm/hr 0.00 in0.0 mm
01:51 PM 26.8°F-2.9°C 19.9°F-6.7°C 75% 1.0 mph WNW1.6 kmh WNW 4.5 mph7.2 kmh 30.22 in1023.4 mb 0.00 in0.0 mm 0.00 in/hr0.0 mm/hr 0.00 in0.0 mm
02:00 PM 26.8°F-2.9°C 19.6°F-6.9°C 74% 1.2 mph NW1.9 kmh NW 4.5 mph7.2 kmh 30.22 in1023.4 mb 0.00 in0.0 mm 0.00 in/hr0.0 mm/hr 0.00 in0.0 mm
02:11 PM 26.8°F-2.9°C 19.9°F-6.7°C 75% 0.8 mph NW1.3 kmh NW 3.1 mph5.0 kmh 30.23 in1023.7 mb 0.00 in0.0 mm 0.00 in/hr0.0 mm/hr 0.00 in0.0 mm
02:15 PM 27.0°F-2.8°C 20.1°F-6.6°C 75% 0.5 mph WNW0.8 kmh WNW 3.1 mph5.0 kmh 30.23 in1023.7 mb 0.00 in0.0 mm 0.00 in/hr0.0 mm/hr 0.00 in0.0 mm
02:30 PM 26.6°F-3.0°C 19.5°F-6.9°C 74% 0.9 mph NW1.4 kmh NW 4.5 mph7.2 kmh 30.24 in1024.0 mb 0.00 in0.0 mm 0.00 in/hr0.0 mm/hr 0.00 in0.0 mm
02:31 PM 26.6°F-3.0°C 19.4°F-7.0°C 74% 0.9 mph NW1.4 kmh NW 4.5 mph7.2 kmh 30.23 in1023.7 mb 0.00 in0.0 mm 0.00 in/hr0.0 mm/hr 0.00 in0.0 mm
02:45 PM 26.2°F-3.2°C 19.4°F-7.0°C 75% 0.8 mph NW1.3 kmh NW 4.5 mph7.2 kmh 30.24 in1024.0 mb 0.00 in0.0 mm 0.00 in/hr0.0 mm/hr 0.00 in0.0 mm
02:51 PM 25.9°F-3.4°C 19.0°F-7.2°C 75% 0.6 mph WNW1.0 kmh WNW 4.5 mph7.2 kmh 30.25 in1024.4 mb 0.00 in0.0 mm 0.00 in/hr0.0 mm/hr 0.00 in0.0 mm
03:00 PM 25.7°F-3.5°C 18.9°F-7.3°C 75% 0.7 mph NW1.1 kmh NW 5.4 mph8.7 kmh 30.25 in1024.4 mb 0.00 in0.0 mm 0.00 in/hr0.0 mm/hr 0.00 in0.0 mm
03:15 PM 25.3°F-3.7°C 18.6°F-7.4°C 75% 0.8 mph WNW1.3 kmh WNW 5.4 mph8.7 kmh 30.25 in1024.4 mb 0.00 in0.0 mm 0.00 in/hr0.0 mm/hr 0.00 in0.0 mm
03:30 PM 25.7°F-3.5°C 19.2°F-7.1°C 76% 0.1 mph WNW0.2 kmh WNW 2.2 mph3.5 kmh 30.26 in1024.7 mb 0.00 in0.0 mm 0.00 in/hr0.0 mm/hr 0.00 in0.0 mm
03:45 PM 24.6°F-4.1°C 17.6°F-8.0°C 74% 0.2 mph NW0.3 kmh NW 2.2 mph3.5 kmh 30.26 in1024.7 mb 0.00 in0.0 mm 0.00 in/hr0.0 mm/hr 0.00 in0.0 mm
04:00 PM 23.0°F-5.0°C 16.9°F-8.4°C 77% 0.4 mph NW0.6 kmh NW 3.1 mph5.0 kmh 30.27 in1025.1 mb 0.00 in0.0 mm 0.00 in/hr0.0 mm/hr 0.00 in0.0 mm
04:15 PM 22.5°F-5.3°C 17.0°F-8.3°C 79% 0.3 mph NW0.5 kmh NW 4.5 mph7.2 kmh 30.28 in1025.4 mb 0.00 in0.0 mm 0.00 in/hr0.0 mm/hr 0.00 in0.0 mm
04:30 PM 21.7°F-5.7°C 16.6°F-8.6°C 80% 0.2 mph NW0.3 kmh NW 3.1 mph5.0 kmh 30.28 in1025.4 mb 0.00 in0.0 mm 0.00 in/hr0.0 mm/hr 0.00 in0.0 mm
04:45 PM 20.5°F-6.4°C 15.6°F-9.1°C 81% 0.2 mph NW0.3 kmh NW 2.2 mph3.5 kmh 30.29 in1025.7 mb 0.00 in0.0 mm 0.00 in/hr0.0 mm/hr 0.00 in0.0 mm
05:00 PM 20.1°F-6.6°C 15.8°F-9.0°C 83% 0.8 mph NW1.3 kmh NW 3.1 mph5.0 kmh 30.30 in1026.1 mb 0.00 in0.0 mm 0.00 in/hr0.0 mm/hr 0.00 in0.0 mm
05:15 PM 19.8°F-6.8°C 15.5°F-9.2°C 83% 0.4 mph NW0.6 kmh NW 2.2 mph3.5 kmh 30.30 in1026.1 mb 0.00 in0.0 mm 0.00 in/hr0.0 mm/hr 0.00 in0.0 mm
05:30 PM 19.0°F-7.2°C 14.8°F-9.6°C 83% 0.1 mph NW0.2 kmh NW 2.2 mph3.5 kmh 30.30 in1026.1 mb 0.00 in0.0 mm 0.00 in/hr0.0 mm/hr 0.00 in0.0 mm
05:45 PM 18.9°F-7.3°C 14.9°F-9.5°C 84% 0.7 mph NW1.1 kmh NW 3.8 mph6.1 kmh 30.31 in1026.4 mb 0.00 in0.0 mm 0.00 in/hr0.0 mm/hr 0.00 in0.0 mm
06:00 PM 18.9°F-7.3°C 15.1°F-9.4°C 85% 0.2 mph WNW0.3 kmh WNW 3.1 mph5.0 kmh 30.31 in1026.4 mb 0.00 in0.0 mm 0.00 in/hr0.0 mm/hr 0.00 in0.0 mm
06:15 PM 16.7°F-8.5°C 12.8°F-10.7°C 84% 0.3 mph WNW0.5 kmh WNW 2.2 mph3.5 kmh 30.32 in1026.8 mb 0.00 in0.0 mm 0.00 in/hr0.0 mm/hr 0.00 in0.0 mm
06:30 PM 16.9°F-8.4°C 13.5°F-10.3°C 86% 0.1 mph SW0.2 kmh SW 1.6 mph2.6 kmh 30.32 in1026.8 mb 0.00 in0.0 mm 0.00 in/hr0.0 mm/hr 0.00 in0.0 mm
06:45 PM 16.0°F-8.9°C 12.8°F-10.7°C 87% Calm Calm 1.6 mph2.6 kmh 30.32 in1026.8 mb 0.00 in0.0 mm 0.00 in/hr0.0 mm/hr 0.00 in0.0 mm
07:00 PM 15.1°F-9.4°C 12.2°F-11.0°C 88% Calm Calm 1.6 mph2.6 kmh 30.32 in1026.8 mb 0.00 in0.0 mm 0.00 in/hr0.0 mm/hr 0.00 in0.0 mm
07:15 PM 16.5°F-8.6°C 14.1°F-9.9°C 90% 0.5 mph NW0.8 kmh NW 3.8 mph6.1 kmh 30.33 in1027.1 mb 0.00 in0.0 mm 0.00 in/hr0.0 mm/hr 0.00 in0.0 mm
07:30 PM 19.0°F-7.2°C 16.6°F-8.6°C 90% 0.8 mph NNW1.3 kmh NNW 3.8 mph6.1 kmh 30.33 in1027.1 mb 0.00 in0.0 mm 0.00 in/hr0.0 mm/hr 0.00 in0.0 mm
07:45 PM 20.5°F-6.4°C 17.8°F-7.9°C 89% 0.8 mph NW1.3 kmh NW 3.8 mph6.1 kmh 30.33 in1027.1 mb 0.00 in0.0 mm 0.00 in/hr0.0 mm/hr 0.00 in0.0 mm
08:00 PM 21.2°F-6.0°C 18.0°F-7.8°C 87% 0.7 mph WNW1.1 kmh WNW 4.5 mph7.2 kmh 30.33 in1027.1 mb 0.00 in0.0 mm 0.00 in/hr0.0 mm/hr 0.00 in0.0 mm
08:15 PM 21.0°F-6.1°C 17.8°F-7.9°C 87% 0.1 mph WSW0.2 kmh WSW 2.2 mph3.5 kmh 30.34 in1027.4 mb 0.00 in0.0 mm 0.00 in/hr0.0 mm/hr 0.00 in0.0 mm
08:30 PM 20.7°F-6.3°C 17.4°F-8.1°C 87% 0.5 mph NW0.8 kmh NW 4.5 mph7.2 kmh 30.34 in1027.4 mb 0.00 in0.0 mm 0.00 in/hr0.0 mm/hr 0.00 in0.0 mm
08:45 PM 21.4°F-5.9°C 17.9°F-7.8°C 86% 0.6 mph NW1.0 kmh NW 3.8 mph6.1 kmh 30.34 in1027.4 mb 0.00 in0.0 mm 0.00 in/hr0.0 mm/hr 0.00 in0.0 mm
09:00 PM 21.0°F-6.1°C 17.3°F-8.2°C 85% 0.3 mph NW0.5 kmh NW 3.8 mph6.1 kmh 30.35 in1027.8 mb 0.00 in0.0 mm 0.00 in/hr0.0 mm/hr 0.00 in0.0 mm
09:15 PM 20.1°F-6.6°C 16.4°F-8.7°C 85% 0.4 mph NNW0.6 kmh NNW 3.8 mph6.1 kmh 30.35 in1027.8 mb 0.00 in0.0 mm 0.00 in/hr0.0 mm/hr 0.00 in0.0 mm
09:30 PM 19.9°F-6.7°C 16.2°F-8.8°C 85% 1.6 mph NNE2.6 kmh NNE 4.5 mph7.2 kmh 30.35 in1027.8 mb 0.00 in0.0 mm 0.00 in/hr0.0 mm/hr 0.00 in0.0 mm
09:45 PM 20.1°F-6.6°C 16.1°F-8.8°C 84% 0.9 mph N1.4 kmh N 4.5 mph7.2 kmh 30.35 in1027.8 mb 0.00 in0.0 mm 0.00 in/hr0.0 mm/hr 0.00 in0.0 mm
10:00 PM 19.6°F-6.9°C 15.3°F-9.3°C 83% 1.1 mph N1.8 kmh N 5.4 mph8.7 kmh 30.35 in1027.8 mb 0.00 in0.0 mm 0.00 in/hr0.0 mm/hr 0.00 in0.0 mm
10:15 PM 19.2°F-7.1°C 15.0°F-9.4°C 83% 0.8 mph N1.3 kmh N 3.8 mph6.1 kmh 30.36 in1028.1 mb 0.00 in0.0 mm 0.00 in/hr0.0 mm/hr 0.00 in0.0 mm
10:30 PM 18.7°F-7.4°C 14.7°F-9.6°C 84% 0.4 mph NE0.6 kmh NE 4.5 mph7.2 kmh 30.37 in1028.4 mb 0.00 in0.0 mm 0.00 in/hr0.0 mm/hr 0.00 in0.0 mm
10:45 PM 18.0°F-7.8°C 14.0°F-10.0°C 84% 0.1 mph N0.2 kmh N 1.6 mph2.6 kmh 30.38 in1028.8 mb 0.00 in0.0 mm 0.00 in/hr0.0 mm/hr 0.00 in0.0 mm
11:00 PM 17.4°F-8.1°C 13.7°F-10.2°C 85% 0.2 mph N0.3 kmh N 2.2 mph3.5 kmh 30.38 in1028.8 mb 0.00 in0.0 mm 0.00 in/hr0.0 mm/hr 0.00 in0.0 mm
11:15 PM 16.5°F-8.6°C 12.9°F-10.6°C 85% 0.2 mph E0.3 kmh E 2.2 mph3.5 kmh 30.38 in1028.8 mb 0.00 in0.0 mm 0.00 in/hr0.0 mm/hr 0.00 in0.0 mm
11:30 PM 15.4°F-9.2°C 12.3°F-10.9°C 87% Calm Calm 1.6 mph2.6 kmh 30.39 in1029.1 mb 0.00 in0.0 mm 0.00 in/hr0.0 mm/hr 0.00 in0.0 mm
11:45 PM 14.9°F-9.5°C 11.8°F-11.2°C 87% 0.4 mph ENE0.6 kmh ENE 2.2 mph3.5 kmh 30.39 in1029.1 mb 0.00 in0.0 mm 0.00 in/hr0.0 mm/hr 0.00 in0.0 mm